sensor_id;sensor_type;location;lat;lon;timestamp;pressure;altitude;pressure_sealevel;temperature;humidity
55351;BME280;62194;49.480;10.986;2022-12-29T00:00:06;97840.38;;;6.92;65.86
55351;BME280;62194;49.480;10.986;2022-12-29T00:00:12;97827.81;;;6.87;65.32
55351;BME280;62194;49.480;10.986;2022-12-29T00:00:17;97838.66;;;6.87;65.25
55351;BME280;62194;49.480;10.986;2022-12-29T00:00:23;97842.16;;;6.88;65.75
55351;BME280;62194;49.480;10.986;2022-12-29T00:00:31;97837.06;;;6.86;66.06
55351;BME280;62194;49.480;10.986;2022-12-29T00:00:36;97838.66;;;6.87;65.49
55351;BME280;62194;49.480;10.986;2022-12-29T00:00:41;97837.88;;;6.87;65.16
55351;BME280;62194;49.480;10.986;2022-12-29T00:00:46;97828.00;;;6.82;65.30
55351;BME280;62194;49.480;10.986;2022-12-29T00:00:52;97813.84;;;6.76;65.86
55351;BME280;62194;49.480;10.986;2022-12-29T00:01:00;97840.44;;;6.83;65.27
55351;BME280;62194;49.480;10.986;2022-12-29T00:01:05;97833.63;;;6.77;65.41
55351;BME280;62194;49.480;10.986;2022-12-29T00:01:11;97835.66;;;6.80;65.40
55351;BME280;62194;49.480;10.986;2022-12-29T00:01:16;97838.53;;;6.84;66.14
55351;BME280;62194;49.480;10.986;2022-12-29T00:01:21;97827.22;;;6.82;65.92
55351;BME280;62194;49.480;10.986;2022-12-29T00:01:27;97828.00;;;6.82;66.34
55351;BME280;62194;49.480;10.986;2022-12-29T00:01:33;97828.00;;;6.82;66.36
55351;BME280;62194;49.480;10.986;2022-12-29T00:01:38;97832.94;;;6.80;66.68
55351;BME280;62194;49.480;10.986;2022-12-29T00:01:46;97824.81;;;6.80;66.42
55351;BME280;62194;49.480;10.986;2022-12-29T00:01:52;97828.34;;;6.80;66.07
55351;BME280;62194;49.480;10.986;2022-12-29T00:01:57;97837.59;;;6.79;67.47
55351;BME280;62194;49.480;10.986;2022-12-29T00:02:02;97837.28;;;6.81;67.15
55351;BME280;62194;49.480;10.986;2022-12-29T00:02:08;97841.69;;;6.86;66.74
55351;BME280;62194;49.480;10.986;2022-12-29T00:02:14;97835.16;;;6.87;65.93
55351;BME280;62194;49.480;10.986;2022-12-29T00:02:20;97835.47;;;6.85;65.84
55351;BME280;62194;49.480;10.986;2022-12-29T00:02:25;97824.03;;;6.79;65.87
55351;BME280;62194;49.480;10.986;2022-12-29T00:02:34;97836.47;;;6.80;65.68
55351;BME280;62194;49.480;10.986;2022-12-29T00:02:39;97834.34;;;6.86;65.54
55351;BME280;62194;49.480;10.986;2022-12-29T00:02:44;97827.69;;;6.84;66.33
55351;BME280;62194;49.480;10.986;2022-12-29T00:02:49;97831.31;;;6.88;66.06
55351;BME280;62194;49.480;10.986;2022-12-29T00:02:55;97835.16;;;6.87;65.84
55351;BME280;62194;49.480;10.986;2022-12-29T00:03:00;97828.47;;;6.84;66.05
55351;BME280;62194;49.480;10.986;2022-12-29T00:03:05;97836.63;;;6.84;65.81
55351;BME280;62194;49.480;10.986;2022-12-29T00:03:10;97827.53;;;6.80;65.48
55351;BME280;62194;49.480;10.986;2022-12-29T00:03:15;97831.50;;;6.83;66.03
55351;BME280;62194;49.480;10.986;2022-12-29T00:03:21;97827.69;;;6.84;66.08
55351;BME280;62194;49.480;10.986;2022-12-29T00:03:29;97824.16;;;6.83;66.75
55351;BME280;62194;49.480;10.986;2022-12-29T00:03:34;97835.81;;;6.84;66.98
55351;BME280;62194;49.480;10.986;2022-12-29T00:03:40;97836.63;;;6.84;66.97
55351;BME280;62194;49.480;10.986;2022-12-29T00:03:46;97840.44;;;6.83;66.67
55351;BME280;62194;49.480;10.986;2022-12-29T00:03:51;97831.06;;;6.80;66.69
55351;BME280;62194;49.480;10.986;2022-12-29T00:04:03;97821.19;;;6.76;66.09
55351;BME280;62194;49.480;10.986;2022-12-29T00:04:11;97833.25;;;6.87;65.31
55351;BME280;62194;49.480;10.986;2022-12-29T00:04:17;97835.16;;;6.87;65.25
55351;BME280;62194;49.480;10.986;2022-12-29T00:04:23;97824.16;;;6.83;65.11
55351;BME280;62194;49.480;10.986;2022-12-29T00:04:28;97827.88;;;6.78;65.26
55351;BME280;62194;49.480;10.986;2022-12-29T00:04:34;97826.44;;;6.81;65.64
55351;BME280;62194;49.480;10.986;2022-12-29T00:04:39;97839.78;;;6.86;65.79
55351;BME280;62194;49.480;10.986;2022-12-29T00:04:44;97838.66;;;6.87;65.87
55351;BME280;62194;49.480;10.986;2022-12-29T00:04:50;97836.41;;;6.89;65.98
55351;BME280;62194;49.480;10.986;2022-12-29T00:05:02;97831.97;;;6.85;65.42
55351;BME280;62194;49.480;10.986;2022-12-29T00:05:08;97835.47;;;6.85;65.68
55351;BME280;62194;49.480;10.986;2022-12-29T00:05:13;97836.75;;;6.88;66.06
55351;BME280;62194;49.480;10.986;2022-12-29T00:05:19;97827.69;;;6.84;65.88
55351;BME280;62194;49.480;10.986;2022-12-29T00:05:24;97832.78;;;6.85;65.54
55351;BME280;62194;49.480;10.986;2022-12-29T00:05:29;97830.25;;;6.80;65.49
55351;BME280;62194;49.480;10.986;2022-12-29T00:05:37;97826.75;;;6.79;65.32
55351;BME280;62194;49.480;10.986;2022-12-29T00:05:54;97831.06;;;6.80;65.82
55351;BME280;62194;49.480;10.986;2022-12-29T00:05:59;97831.38;;;6.79;66.80
55351;BME280;62194;49.480;10.986;2022-12-29T00:06:05;97835.00;;;6.83;66.39
55351;BME280;62194;49.480;10.986;2022-12-29T00:06:13;97824.69;;;6.76;66.06
55351;BME280;62194;49.480;10.986;2022-12-29T00:06:18;97836.00;;;6.78;66.82
55351;BME280;62194;49.480;10.986;2022-12-29T00:06:24;97831.06;;;6.80;66.52
55351;BME280;62194;49.480;10.986;2022-12-29T00:06:30;97834.56;;;6.81;66.24
55351;BME280;62194;49.480;10.986;2022-12-29T00:06:35;97836.63;;;6.84;66.53
55351;BME280;62194;49.480;10.986;2022-12-29T00:06:49;97833.69;;;6.89;65.85
55351;BME280;62194;49.480;10.986;2022-12-29T00:06:54;97828.13;;;6.86;65.94
55351;BME280;62194;49.480;10.986;2022-12-29T00:07:00;97833.13;;;6.84;66.04
55351;BME280;62194;49.480;10.986;2022-12-29T00:07:05;97836.28;;;6.86;65.78
55351;BME280;62194;49.480;10.986;2022-12-29T00:07:13;97827.22;;;6.82;66.26
55351;BME280;62194;49.480;10.986;2022-12-29T00:07:18;97835.31;;;6.90;65.67
55351;BME280;62194;49.480;10.986;2022-12-29T00:07:23;97831.31;;;6.88;65.62
55351;BME280;62194;49.480;10.986;2022-12-29T00:07:29;97829.88;;;6.90;65.53
55351;BME280;62194;49.480;10.986;2022-12-29T00:07:37;97828.63;;;6.88;65.14
55351;BME280;62194;49.480;10.986;2022-12-29T00:07:42;97819.56;;;6.84;64.97
55351;BME280;62194;49.480;10.986;2022-12-29T00:07:47;97826.88;;;6.83;65.26
55351;BME280;62194;49.480;10.986;2022-12-29T00:07:53;97829.59;;;6.83;65.14
55351;BME280;62194;49.480;10.986;2022-12-29T00:07:58;97826.75;;;6.79;65.18
55351;BME280;62194;49.480;10.986;2022-12-29T00:08:03;97816.25;;;6.78;65.54
55351;BME280;62194;49.480;10.986;2022-12-29T00:08:09;97832.28;;;6.83;65.74
55351;BME280;62194;49.480;10.986;2022-12-29T00:08:14;97820.09;;;6.77;65.71
55351;BME280;62194;49.480;10.986;2022-12-29T00:08:19;97815.47;;;6.77;66.06
55351;BME280;62194;49.480;10.986;2022-12-29T00:08:25;97815.59;;;6.81;65.79
55351;BME280;62194;49.480;10.986;2022-12-29T00:08:44;97830.66;;;6.91;65.84
55351;BME280;62194;49.480;10.986;2022-12-29T00:08:52;97826.81;;;6.92;66.26
55351;BME280;62194;49.480;10.986;2022-12-29T00:08:57;97835.56;;;6.97;66.18
55351;BME280;62194;49.480;10.986;2022-12-29T00:09:03;97835.22;;;6.99;66.04
55351;BME280;62194;49.480;10.986;2022-12-29T00:09:10;97839.53;;;7.00;65.21
55351;BME280;62194;49.480;10.986;2022-12-29T00:09:16;97836.00;;;6.99;65.50
55351;BME280;62194;49.480;10.986;2022-12-29T00:09:22;97837.91;;;6.99;65.12
55351;BME280;62194;49.480;10.986;2022-12-29T00:09:27;97828.75;;;6.91;65.66
55351;BME280;62194;49.480;10.986;2022-12-29T00:09:41;97829.88;;;6.90;65.18
55351;BME280;62194;49.480;10.986;2022-12-29T00:09:46;97834.47;;;6.90;65.36
55351;BME280;62194;49.480;10.986;2022-12-29T00:09:52;97841.50;;;6.91;65.41
55351;BME280;62194;49.480;10.986;2022-12-29T00:09:57;97838.00;;;6.90;65.22
55351;BME280;62194;49.480;10.986;2022-12-29T00:10:08;97837.53;;;6.88;66.28
55351;BME280;62194;49.480;10.986;2022-12-29T00:10:13;97837.88;;;6.87;66.05
55351;BME280;62194;49.480;10.986;2022-12-29T00:10:19;97822.47;;;6.78;65.87
55351;BME280;62194;49.480;10.986;2022-12-29T00:10:24;97827.88;;;6.78;65.90
55351;BME280;62194;49.480;10.986;2022-12-29T00:10:29;97834.44;;;6.77;65.43
55351;BME280;62194;49.480;10.986;2022-12-29T00:10:34;97830.25;;;6.80;65.20
55351;BME280;62194;49.480;10.986;2022-12-29T00:10:39;97835.88;;;6.75;65.42
55351;BME280;62194;49.480;10.986;2022-12-29T00:10:48;97838.72;;;6.78;65.67
55351;BME280;62194;49.480;10.986;2022-12-29T00:10:53;97834.75;;;6.76;65.29
55351;BME280;62194;49.480;10.986;2022-12-29T00:10:59;97824.56;;;6.73;65.36
55351;BME280;62194;49.480;10.986;2022-12-29T00:11:12;97831.72;;;6.77;65.72
55351;BME280;62194;49.480;10.986;2022-12-29T00:11:26;97832.25;;;6.71;65.58
55351;BME280;62194;49.480;10.986;2022-12-29T00:11:32;97824.44;;;6.69;65.38
55351;BME280;62194;49.480;10.986;2022-12-29T00:11:37;97834.63;;;6.72;65.67
55351;BME280;62194;49.480;10.986;2022-12-29T00:11:43;97828.53;;;6.75;65.89
55351;BME280;62194;49.480;10.986;2022-12-29T00:11:48;97835.09;;;6.74;66.20
55351;BME280;62194;49.480;10.986;2022-12-29T00:11:55;97826.97;;;6.74;65.91
55351;BME280;62194;49.480;10.986;2022-12-29T00:12:01;97830.72;;;6.82;66.34
55351;BME280;62194;49.480;10.986;2022-12-29T00:12:06;97835.66;;;6.80;66.66
55351;BME280;62194;49.480;10.986;2022-12-29T00:12:12;97837.28;;;6.81;66.57
55351;BME280;62194;49.480;10.986;2022-12-29T00:12:17;97832.81;;;6.76;66.64
55351;BME280;62194;49.480;10.986;2022-12-29T00:12:22;97825.34;;;6.73;66.13
55351;BME280;62194;49.480;10.986;2022-12-29T00:12:27;97825.03;;;6.75;66.16
55351;BME280;62194;49.480;10.986;2022-12-29T00:12:53;97828.22;;;6.77;65.79
55351;BME280;62194;49.480;10.986;2022-12-29T00:13:17;97830.78;;;6.73;65.83
55351;BME280;62194;49.480;10.986;2022-12-29T00:13:40;97828.53;;;6.75;66.56
55351;BME280;62194;49.480;10.986;2022-12-29T00:14:05;97833.97;;;6.75;65.97
55351;BME280;62194;49.480;10.986;2022-12-29T00:14:32;97831.59;;;6.74;66.50
55351;BME280;62194;49.480;10.986;2022-12-29T00:14:56;97828.34;;;6.80;66.30
55351;BME280;62194;49.480;10.986;2022-12-29T00:15:20;97824.25;;;6.74;67.38
55351;BME280;62194;49.480;10.986;2022-12-29T00:15:44;97834.09;;;6.79;67.07
55351;BME280;62194;49.480;10.986;2022-12-29T00:15:51;97830.13;;;6.76;66.15
55351;BME280;62194;49.480;10.986;2022-12-29T00:15:57;97832.16;;;6.79;66.75
55351;BME280;62194;49.480;10.986;2022-12-29T00:16:02;97829.94;;;6.82;66.96
55351;BME280;62194;49.480;10.986;2022-12-29T00:16:07;97827.09;;;6.78;67.94
55351;BME280;62194;49.480;10.986;2022-12-29T00:16:13;97823.59;;;6.77;67.79
55351;BME280;62194;49.480;10.986;2022-12-29T00:16:18;97828.22;;;6.77;66.77
55351;BME280;62194;49.480;10.986;2022-12-29T00:16:24;97826.63;;;6.76;66.02
55351;BME280;62194;49.480;10.986;2022-12-29T00:16:34;97828.66;;;6.79;66.72
55351;BME280;62194;49.480;10.986;2022-12-29T00:16:44;97822.31;;;6.75;66.63
55351;BME280;62194;49.480;10.986;2022-12-29T00:16:49;97822.47;;;6.78;66.59
55351;BME280;62194;49.480;10.986;2022-12-29T00:16:54;97825.66;;;6.80;67.07
55351;BME280;62194;49.480;10.986;2022-12-29T00:17:00;97823.25;;;6.79;66.63
55351;BME280;62194;49.480;10.986;2022-12-29T00:17:06;97831.19;;;6.84;66.55
55351;BME280;62194;49.480;10.986;2022-12-29T00:17:12;97825.16;;;6.78;66.61
55351;BME280;62194;49.480;10.986;2022-12-29T00:17:17;97820.22;;;6.80;66.06
55351;BME280;62194;49.480;10.986;2022-12-29T00:17:23;97820.47;;;6.88;66.14
55351;BME280;62194;49.480;10.986;2022-12-29T00:17:28;97824.31;;;6.87;65.70
55351;BME280;62194;49.480;10.986;2022-12-29T00:17:33;97816.50;;;6.85;66.01
55351;BME280;62194;49.480;10.986;2022-12-29T00:17:38;97815.72;;;6.85;65.74
55351;BME280;62194;49.480;10.986;2022-12-29T00:17:44;97825.56;;;6.89;65.48
55351;BME280;62194;49.480;10.986;2022-12-29T00:17:49;97828.63;;;6.88;65.79
55351;BME280;62194;49.480;10.986;2022-12-29T00:17:54;97820.47;;;6.88;66.12
55351;BME280;62194;49.480;10.986;2022-12-29T00:17:59;97821.28;;;6.88;66.56
55351;BME280;62194;49.480;10.986;2022-12-29T00:18:06;97823.78;;;6.93;66.44
55351;BME280;62194;49.480;10.986;2022-12-29T00:18:11;97827.75;;;6.96;66.76
55351;BME280;62194;49.480;10.986;2022-12-29T00:18:16;97833.94;;;6.96;66.39
55351;BME280;62194;49.480;10.986;2022-12-29T00:18:22;97801.44;;;6.75;66.54
55351;BME280;62194;49.480;10.986;2022-12-29T00:18:27;97830.94;;;6.98;66.28
55351;BME280;62194;49.480;10.986;2022-12-29T00:18:32;97830.13;;;6.97;66.11
55351;BME280;62194;49.480;10.986;2022-12-29T00:18:37;97819.28;;;6.97;66.01
55351;BME280;62194;49.480;10.986;2022-12-29T00:18:43;97818.16;;;6.98;66.12
55351;BME280;62194;49.480;10.986;2022-12-29T00:18:48;97804.22;;;6.88;66.12
55351;BME280;62194;49.480;10.986;2022-12-29T00:18:53;97823.25;;;7.00;66.12
55351;BME280;62194;49.480;10.986;2022-12-29T00:18:59;97833.44;;;7.03;66.20
55351;BME280;62194;49.480;10.986;2022-12-29T00:19:05;97815.31;;;6.95;66.33
55351;BME280;62194;49.480;10.986;2022-12-29T00:19:11;97828.81;;;7.03;66.67
55351;BME280;62194;49.480;10.986;2022-12-29T00:19:35;97824.25;;;6.95;65.44
55351;BME280;62194;49.480;10.986;2022-12-29T00:19:59;97828.94;;;7.07;65.28
55351;BME280;62194;49.480;10.986;2022-12-29T00:20:28;97824.97;;;7.04;65.81
55351;BME280;62194;49.480;10.986;2022-12-29T00:20:54;97827.06;;;6.99;65.87
55351;BME280;62194;49.480;10.986;2022-12-29T00:21:21;97811.53;;;7.08;65.86
55351;BME280;62194;49.480;10.986;2022-12-29T00:21:45;97828.53;;;7.17;64.80
55351;BME280;62194;49.480;10.986;2022-12-29T00:22:19;97829.19;;;7.14;64.68
55351;BME280;62194;49.480;10.986;2022-12-29T00:22:46;97814.13;;;7.04;65.80
55351;BME280;62194;49.480;10.986;2022-12-29T00:23:10;97818.41;;;7.06;65.18
55351;BME280;62194;49.480;10.986;2022-12-29T00:23:33;97828.94;;;7.07;65.83
55351;BME280;62194;49.480;10.986;2022-12-29T00:24:03;97821.91;;;7.06;65.27
55351;BME280;62194;49.480;10.986;2022-12-29T00:24:27;97829.72;;;7.08;65.29
55351;BME280;62194;49.480;10.986;2022-12-29T00:24:32;97827.34;;;7.06;65.45
55351;BME280;62194;49.480;10.986;2022-12-29T00:24:56;97812.41;;;7.00;65.41
55351;BME280;62194;49.480;10.986;2022-12-29T00:25:14;97812.56;;;7.03;65.96
55351;BME280;62194;49.480;10.986;2022-12-29T00:25:38;97812.47;;;7.12;64.71
55351;BME280;62194;49.480;10.986;2022-12-29T00:26:12;97812.94;;;7.14;65.14
55351;BME280;62194;49.480;10.986;2022-12-29T00:26:36;97815.16;;;7.12;65.11
55351;BME280;62194;49.480;10.986;2022-12-29T00:27:31;97818.00;;;7.16;65.12
55351;BME280;62194;49.480;10.986;2022-12-29T00:27:55;97821.53;;;7.16;65.48
55351;BME280;62194;49.480;10.986;2022-12-29T00:28:19;97813.25;;;7.13;65.67
55351;BME280;62194;49.480;10.986;2022-12-29T00:28:43;97816.78;;;7.13;65.39
55351;BME280;62194;49.480;10.986;2022-12-29T00:29:07;97830.34;;;7.13;65.32
55351;BME280;62194;49.480;10.986;2022-12-29T00:29:31;97818.41;;;7.06;65.13
55351;BME280;62194;49.480;10.986;2022-12-29T00:29:58;97820.81;;;7.07;65.33
55351;BME280;62194;49.480;10.986;2022-12-29T00:30:23;97817.88;;;7.12;64.99
55351;BME280;62194;49.480;10.986;2022-12-29T00:30:47;97821.25;;;7.09;65.78
55351;BME280;62194;49.480;10.986;2022-12-29T00:31:14;97811.28;;;7.01;66.17
55351;BME280;62194;49.480;10.986;2022-12-29T00:31:38;97811.88;;;7.07;65.58
55351;BME280;62194;49.480;10.986;2022-12-29T00:32:04;97814.25;;;7.08;65.24
55351;BME280;62194;49.480;10.986;2022-12-29T00:32:28;97812.56;;;7.03;65.81
55351;BME280;62194;49.480;10.986;2022-12-29T00:32:51;97821.13;;;7.06;65.60
55351;BME280;62194;49.480;10.986;2022-12-29T00:33:18;97816.25;;;6.99;65.83
55351;BME280;62194;49.480;10.986;2022-12-29T00:33:42;97815.91;;;7.00;65.61
55351;BME280;62194;49.480;10.986;2022-12-29T00:34:09;97820.94;;;7.11;65.47
55351;BME280;62194;49.480;10.986;2022-12-29T00:34:34;97826.91;;;7.04;66.36
55351;BME280;62194;49.480;10.986;2022-12-29T00:34:58;97822.66;;;6.94;66.24
55351;BME280;62194;49.480;10.986;2022-12-29T00:35:23;97812.78;;;6.90;66.31
55351;BME280;62194;49.480;10.986;2022-12-29T00:35:34;97813.09;;;6.97;66.30
55351;BME280;62194;49.480;10.986;2022-12-29T00:35:54;97821.00;;;7.02;65.79
55351;BME280;62194;49.480;10.986;2022-12-29T00:36:24;97816.97;;;7.08;65.13
55351;BME280;62194;49.480;10.986;2022-12-29T00:36:43;97814.91;;;7.05;65.51
55351;BME280;62194;49.480;10.986;2022-12-29T00:36:49;97816.50;;;7.06;65.64
55351;BME280;62194;49.480;10.986;2022-12-29T00:36:54;97810.50;;;7.00;65.57
55351;BME280;62194;49.480;10.986;2022-12-29T00:37:03;97814.66;;;6.98;65.57
55351;BME280;62194;49.480;10.986;2022-12-29T00:37:08;97819.19;;;7.06;65.22
55351;BME280;62194;49.480;10.986;2022-12-29T00:37:14;97808.56;;;7.01;65.25
55351;BME280;62194;49.480;10.986;2022-12-29T00:37:19;97814.59;;;7.07;65.02
55351;BME280;62194;49.480;10.986;2022-12-29T00:37:47;97811.16;;;6.97;65.27
55351;BME280;62194;49.480;10.986;2022-12-29T00:38:12;97813.66;;;7.02;65.43
55351;BME280;62194;49.480;10.986;2022-12-29T00:38:38;97805.13;;;6.92;65.61
55351;BME280;62194;49.480;10.986;2022-12-29T00:39:10;97816.09;;;6.95;66.39
55351;BME280;62194;49.480;10.986;2022-12-29T00:39:34;97813.09;;;6.97;66.40
55351;BME280;62194;49.480;10.986;2022-12-29T00:39:58;97814.47;;;7.03;65.78
55351;BME280;62194;49.480;10.986;2022-12-29T00:40:25;97804.47;;;6.95;65.18
55351;BME280;62194;49.480;10.986;2022-12-29T00:40:49;97808.03;;;7.08;65.14
55351;BME280;62194;49.480;10.986;2022-12-29T00:41:13;97807.91;;;7.04;65.11
55351;BME280;62194;49.480;10.986;2022-12-29T00:41:37;97806.53;;;6.98;65.69
55351;BME280;62194;49.480;10.986;2022-12-29T00:42:05;97810.81;;;6.99;65.05
55351;BME280;62194;49.480;10.986;2022-12-29T00:42:29;97807.66;;;6.97;66.22
55351;BME280;62194;49.480;10.986;2022-12-29T00:42:53;97799.97;;;6.99;65.53
55351;BME280;62194;49.480;10.986;2022-12-29T00:43:20;97806.78;;;7.05;65.25
55351;BME280;62194;49.480;10.986;2022-12-29T00:43:47;97810.63;;;7.04;65.66
55351;BME280;62194;49.480;10.986;2022-12-29T00:44:12;97797.75;;;7.01;65.88
55351;BME280;62194;49.480;10.986;2022-12-29T00:44:18;97806.00;;;7.04;65.25
55351;BME280;62194;49.480;10.986;2022-12-29T00:44:23;97809.97;;;7.07;65.99
55351;BME280;62194;49.480;10.986;2022-12-29T00:44:28;97806.47;;;7.07;65.70
55351;BME280;62194;49.480;10.986;2022-12-29T00:44:34;97807.56;;;7.06;66.16
55351;BME280;62194;49.480;10.986;2022-12-29T00:44:39;97800.69;;;7.08;65.71
55351;BME280;62194;49.480;10.986;2022-12-29T00:44:44;97812.69;;;7.07;65.85
55351;BME280;62194;49.480;10.986;2022-12-29T00:44:50;97798.66;;;7.05;65.39
55351;BME280;62194;49.480;10.986;2022-12-29T00:44:55;97811.75;;;7.03;65.32
55351;BME280;62194;49.480;10.986;2022-12-29T00:45:00;97811.06;;;7.06;65.61
55351;BME280;62194;49.480;10.986;2022-12-29T00:45:06;97808.72;;;7.04;65.73
55351;BME280;62194;49.480;10.986;2022-12-29T00:45:11;97806.34;;;7.03;65.51
55351;BME280;62194;49.480;10.986;2022-12-29T00:45:16;97817.63;;;7.05;65.69
55351;BME280;62194;49.480;10.986;2022-12-29T00:45:31;97805.22;;;7.04;65.72
55351;BME280;62194;49.480;10.986;2022-12-29T00:45:36;97809.50;;;7.05;66.07
55351;BME280;62194;49.480;10.986;2022-12-29T00:45:41;97806.34;;;7.03;66.11
55351;BME280;62194;49.480;10.986;2022-12-29T00:45:47;97800.91;;;7.03;66.12
55351;BME280;62194;49.480;10.986;2022-12-29T00:45:52;97800.91;;;7.03;66.19
55351;BME280;62194;49.480;10.986;2022-12-29T00:45:57;97791.84;;;6.99;66.16
55351;BME280;62194;49.480;10.986;2022-12-29T00:46:02;97805.53;;;7.02;65.75
55351;BME280;62194;49.480;10.986;2022-12-29T00:46:08;97803.28;;;7.04;65.35
55351;BME280;62194;49.480;10.986;2022-12-29T00:46:13;97806.34;;;7.03;65.68
55351;BME280;62194;49.480;10.986;2022-12-29T00:46:18;97787.69;;;7.01;66.01
55351;BME280;62194;49.480;10.986;2022-12-29T00:46:23;97798.22;;;7.03;65.86
55351;BME280;62194;49.480;10.986;2022-12-29T00:46:29;97807.69;;;7.09;65.83
55351;BME280;62194;49.480;10.986;2022-12-29T00:46:36;97802.28;;;7.09;65.93
55351;BME280;62194;49.480;10.986;2022-12-29T00:46:42;97791.53;;;7.00;65.94
55351;BME280;62194;49.480;10.986;2022-12-29T00:46:47;97804.06;;;7.05;65.89
55351;BME280;62194;49.480;10.986;2022-12-29T00:46:53;97805.66;;;7.06;65.95
55351;BME280;62194;49.480;10.986;2022-12-29T00:46:58;97809.63;;;7.09;66.07
55351;BME280;62194;49.480;10.986;2022-12-29T00:47:11;97798.34;;;7.07;65.65
55351;BME280;62194;49.480;10.986;2022-12-29T00:47:16;97807.13;;;7.03;65.64
55351;BME280;62194;49.480;10.986;2022-12-29T00:47:27;97804.84;;;7.06;65.84
55351;BME280;62194;49.480;10.986;2022-12-29T00:47:32;97802.03;;;7.02;66.03
55351;BME280;62194;49.480;10.986;2022-12-29T00:47:37;97801.22;;;7.01;65.91
55351;BME280;62194;49.480;10.986;2022-12-29T00:47:43;97798.53;;;7.01;65.77
55351;BME280;62194;49.480;10.986;2022-12-29T00:47:48;97793.28;;;6.96;65.90
55351;BME280;62194;49.480;10.986;2022-12-29T00:47:53;97808.56;;;7.01;66.08
55351;BME280;62194;49.480;10.986;2022-12-29T00:47:58;97798.53;;;7.01;66.12
55351;BME280;62194;49.480;10.986;2022-12-29T00:48:04;97800.91;;;7.03;66.04
55351;BME280;62194;49.480;10.986;2022-12-29T00:48:09;97802.50;;;7.04;65.78
55351;BME280;62194;49.480;10.986;2022-12-29T00:48:14;97796.16;;;7.00;65.61
55351;BME280;62194;49.480;10.986;2022-12-29T00:48:20;97802.50;;;7.04;65.77
55351;BME280;62194;49.480;10.986;2022-12-29T00:48:45;97798.53;;;7.01;66.04
55351;BME280;62194;49.480;10.986;2022-12-29T00:49:11;97808.72;;;7.04;65.85
55351;BME280;62194;49.480;10.986;2022-12-29T00:49:35;97798.53;;;7.01;65.49
55351;BME280;62194;49.480;10.986;2022-12-29T00:49:40;97805.22;;;7.04;65.87
55351;BME280;62194;49.480;10.986;2022-12-29T00:49:48;97804.72;;;7.02;65.67
55351;BME280;62194;49.480;10.986;2022-12-29T00:49:53;97805.53;;;7.02;65.95
55351;BME280;62194;49.480;10.986;2022-12-29T00:49:58;97797.94;;;6.96;65.85
55351;BME280;62194;49.480;10.986;2022-12-29T00:50:07;97803.81;;;6.98;65.36
55351;BME280;62194;49.480;10.986;2022-12-29T00:50:12;97801.09;;;6.98;65.55
55351;BME280;62194;49.480;10.986;2022-12-29T00:50:17;97803.47;;;6.99;65.45
55351;BME280;62194;49.480;10.986;2022-12-29T00:50:23;97800.63;;;6.96;65.26
55351;BME280;62194;49.480;10.986;2022-12-29T00:50:28;97799.53;;;6.97;65.59
55351;BME280;62194;49.480;10.986;2022-12-29T00:50:33;97803.63;;;7.03;65.77
55351;BME280;62194;49.480;10.986;2022-12-29T00:50:38;97801.22;;;7.01;65.79
55351;BME280;62194;49.480;10.986;2022-12-29T00:50:44;97799.78;;;7.04;65.56
55351;BME280;62194;49.480;10.986;2022-12-29T00:50:49;97786.53;;;7.02;65.50
55351;BME280;62194;49.480;10.986;2022-12-29T00:50:56;97798.78;;;7.09;65.72
55351;BME280;62194;49.480;10.986;2022-12-29T00:51:02;97793.56;;;7.03;65.51
55351;BME280;62194;49.480;10.986;2022-12-29T00:51:10;97797.88;;;7.04;66.04
55351;BME280;62194;49.480;10.986;2022-12-29T00:51:15;97789.59;;;7.01;65.70
55351;BME280;62194;49.480;10.986;2022-12-29T00:51:20;97800.56;;;7.04;65.29
55351;BME280;62194;49.480;10.986;2022-12-29T00:51:26;97795.03;;;7.01;65.22
55351;BME280;62194;49.480;10.986;2022-12-29T00:51:31;97800.44;;;7.01;65.23
55351;BME280;62194;49.480;10.986;2022-12-29T00:51:36;97794.69;;;7.02;65.77
55351;BME280;62194;49.480;10.986;2022-12-29T00:51:42;97799.31;;;7.02;66.05
55351;BME280;62194;49.480;10.986;2022-12-29T00:51:47;97805.66;;;7.06;65.56
55351;BME280;62194;49.480;10.986;2022-12-29T00:52:12;97805.66;;;7.06;65.14
55351;BME280;62194;49.480;10.986;2022-12-29T00:52:18;97801.22;;;7.01;64.67
55351;BME280;62194;49.480;10.986;2022-12-29T00:52:23;97800.75;;;6.99;65.23
55351;BME280;62194;49.480;10.986;2022-12-29T00:52:28;97795.69;;;6.98;65.17
55351;BME280;62194;49.480;10.986;2022-12-29T00:52:33;97795.34;;;6.99;65.24
55351;BME280;62194;49.480;10.986;2022-12-29T00:52:39;97797.75;;;7.01;65.61
55351;BME280;62194;49.480;10.986;2022-12-29T00:52:44;97807.91;;;7.04;65.40
55351;BME280;62194;49.480;10.986;2022-12-29T00:52:49;97797.06;;;7.04;65.40
55351;BME280;62194;49.480;10.986;2022-12-29T00:52:54;97804.72;;;7.02;65.26
55351;BME280;62194;49.480;10.986;2022-12-29T00:53:00;97804.72;;;7.02;65.25
55351;BME280;62194;49.480;10.986;2022-12-29T00:53:05;97802.03;;;7.02;65.42
55351;BME280;62194;49.480;10.986;2022-12-29T00:53:10;97802.03;;;7.02;65.23
55351;BME280;62194;49.480;10.986;2022-12-29T00:53:15;97805.06;;;7.00;65.33
55351;BME280;62194;49.480;10.986;2022-12-29T00:53:21;97796.34;;;6.95;65.40
55351;BME280;62194;49.480;10.986;2022-12-29T00:53:26;97795.03;;;7.01;65.38
55351;BME280;62194;49.480;10.986;2022-12-29T00:53:31;97803.63;;;7.03;65.60
55351;BME280;62194;49.480;10.986;2022-12-29T00:53:37;97804.41;;;7.03;65.36
55351;BME280;62194;49.480;10.986;2022-12-29T00:53:45;97801.72;;;7.03;65.50
55351;BME280;62194;49.480;10.986;2022-12-29T00:53:53;97803.63;;;7.03;65.85
55351;BME280;62194;49.480;10.986;2022-12-29T00:53:58;97805.66;;;7.06;66.14
55351;BME280;62194;49.480;10.986;2022-12-29T00:54:04;97800.91;;;7.03;66.09
55351;BME280;62194;49.480;10.986;2022-12-29T00:54:09;97804.72;;;7.02;66.06
55351;BME280;62194;49.480;10.986;2022-12-29T00:54:15;97800.09;;;7.02;65.93
55351;BME280;62194;49.480;10.986;2022-12-29T00:54:21;97810.75;;;7.08;65.75
55351;BME280;62194;49.480;10.986;2022-12-29T00:54:28;97800.09;;;7.02;66.00